createdAt,value
2023-04-15T00:01:12.325Z,96016.22
2023-04-15T00:03:40.349Z,96021.50
2023-04-15T00:06:07.798Z,96012.22
2023-04-15T00:08:35.129Z,96027.72
2023-04-15T00:11:05.756Z,96030.69
2023-04-15T00:13:34.205Z,96029.31
2023-04-15T00:16:02.347Z,96030.88
2023-04-15T00:18:30.100Z,96036.59
2023-04-15T00:20:57.500Z,96053.59
2023-04-15T00:23:25.067Z,96041.69
2023-04-15T00:25:52.477Z,96043.56
2023-04-15T00:28:20.083Z,96046.88
2023-04-15T00:30:48.014Z,96048.09
2023-04-15T00:33:19.283Z,96049.53
2023-04-15T00:35:47.418Z,96049.47
2023-04-15T00:38:14.658Z,96048.94
2023-04-15T00:40:43.645Z,96044.94
2023-04-15T00:43:10.878Z,96047.75
2023-04-15T00:45:38.701Z,96051.03
2023-04-15T00:48:06.298Z,96058.75
2023-04-15T00:50:34.365Z,96049.97
2023-04-15T00:53:01.778Z,96050.97
2023-04-15T00:55:29.073Z,96049.22
2023-04-15T00:57:58.080Z,96062.13
2023-04-15T01:00:25.558Z,96067.88
2023-04-15T01:02:53.196Z,96066.97
2023-04-15T01:05:20.687Z,96069.88
2023-04-15T01:07:48.939Z,96075.03
2023-04-15T01:10:16.334Z,96080.31
2023-04-15T01:12:44.714Z,96086.69
2023-04-15T01:15:12.241Z,96089.78
2023-04-15T01:17:39.977Z,96090.50
2023-04-15T01:20:10.554Z,96085.53
2023-04-15T01:22:38.601Z,96089.22
2023-04-15T01:25:19.845Z,96088.44
2023-04-15T01:27:47.704Z,96079.59
2023-04-15T01:30:16.355Z,96082.72
2023-04-15T01:32:43.527Z,96086.06
2023-04-15T01:35:10.781Z,96091.28
2023-04-15T01:37:38.268Z,96098.97
2023-04-15T01:40:06.613Z,96103.22
2023-04-15T01:42:36.569Z,96105.38
2023-04-15T01:45:04.598Z,96098.50
2023-04-15T01:47:32.224Z,96101.13
2023-04-15T01:49:59.487Z,96106.44
2023-04-15T01:52:26.740Z,96103.97
2023-04-15T01:54:53.896Z,96104.91
2023-04-15T01:57:21.164Z,96111.69
2023-04-15T01:59:48.495Z,96103.34
2023-04-15T02:02:16.299Z,96110.22
2023-04-15T02:04:43.517Z,96115.78
2023-04-15T02:07:10.786Z,96114.63
2023-04-15T02:09:38.706Z,96124.28
2023-04-15T02:12:08.692Z,96119.03
2023-04-15T02:14:36.054Z,96116.03
2023-04-15T02:17:07.432Z,96124.69
2023-04-15T02:19:35.821Z,96125.94
2023-04-15T02:22:04.297Z,96132.91
2023-04-15T02:24:31.706Z,96132.34
2023-04-15T02:26:58.962Z,96138.84
2023-04-15T02:29:26.320Z,96142.34
2023-04-15T02:31:53.600Z,96152.16
2023-04-15T02:34:20.888Z,96149.84
2023-04-15T02:36:49.744Z,96153.59
2023-04-15T02:39:18.658Z,96141.63
2023-04-15T02:41:51.846Z,96152.69
2023-04-15T02:44:20.578Z,96148.66
2023-04-15T02:46:52.567Z,96146.44
2023-04-15T02:49:23.047Z,96144.41
2023-04-15T02:51:51.334Z,96142.09
2023-04-15T02:54:22.917Z,96140.59
2023-04-15T02:56:50.873Z,96142.09
2023-04-15T02:59:18.129Z,96141.81
2023-04-15T03:01:45.750Z,96138.72
2023-04-15T03:04:14.465Z,96146.09
2023-04-15T03:06:41.815Z,96146.38
2023-04-15T03:09:10.394Z,96145.66
2023-04-15T03:11:41.088Z,96148.22
2023-04-15T03:14:10.094Z,96154.63
2023-04-15T03:16:41.774Z,96145.97
2023-04-15T03:19:09.127Z,96141.03
2023-04-15T03:21:37.702Z,96141.34
2023-04-15T03:24:05.189Z,96143.72
2023-04-15T03:26:32.951Z,96144.09
2023-04-15T03:29:03.148Z,96143.28
2023-04-15T03:31:30.630Z,96143.59
2023-04-15T03:33:57.938Z,96144.34
2023-04-15T03:36:25.968Z,96149.38
2023-04-15T03:38:53.157Z,96148.00
2023-04-15T03:41:20.426Z,96148.56
2023-04-15T03:43:47.755Z,96147.00
2023-04-15T03:46:15.088Z,96157.19
2023-04-15T03:48:42.321Z,96160.50
2023-04-15T03:51:10.030Z,96165.13
2023-04-15T03:53:37.634Z,96171.69
2023-04-15T03:56:05.670Z,96172.72
2023-04-15T03:58:32.895Z,96167.94
2023-04-15T04:01:00.486Z,96168.44
2023-04-15T04:03:28.004Z,96167.84
2023-04-15T04:05:55.431Z,96173.91
2023-04-15T04:08:22.851Z,96169.31
2023-04-15T04:10:50.265Z,96165.69
2023-04-15T04:13:17.530Z,96165.97
2023-04-15T04:15:44.910Z,96168.41
2023-04-15T04:18:12.581Z,96169.53
2023-04-15T04:20:39.868Z,96166.66
2023-04-15T04:23:07.145Z,96170.91
2023-04-15T04:25:34.488Z,96168.28
2023-04-15T04:28:01.768Z,96164.63
2023-04-15T04:30:29.004Z,96171.34
2023-04-15T04:32:56.375Z,96173.91
2023-04-15T04:35:23.706Z,96178.50
2023-04-15T04:37:51.003Z,96179.59
2023-04-15T04:40:18.413Z,96181.59
2023-04-15T04:42:46.113Z,96176.19
2023-04-15T04:45:13.503Z,96184.97
2023-04-15T04:47:40.811Z,96184.63
2023-04-15T04:50:09.314Z,96187.84
2023-04-15T04:52:36.954Z,96184.13
2023-04-15T04:55:04.533Z,96192.16
2023-04-15T04:57:31.984Z,96194.91
2023-04-15T04:59:59.318Z,96193.91
2023-04-15T05:02:27.720Z,96201.53
2023-04-15T05:04:55.466Z,96198.94
2023-04-15T05:07:22.929Z,96201.03
2023-04-15T05:09:50.314Z,96201.25
2023-04-15T05:12:18.352Z,96202.59
2023-04-15T05:14:46.880Z,96206.16
2023-04-15T05:17:14.393Z,96217.50
2023-04-15T05:19:41.555Z,96217.09
2023-04-15T05:22:08.906Z,96221.00
2023-04-15T05:24:36.548Z,96223.03
2023-04-15T05:27:03.838Z,96214.69
2023-04-15T05:29:31.348Z,96226.25
2023-04-15T05:31:58.691Z,96228.19
2023-04-15T05:34:26.118Z,96230.47
2023-04-15T05:36:53.241Z,96225.34
2023-04-15T05:39:20.920Z,96237.72
2023-04-15T05:41:48.184Z,96238.41
2023-04-15T05:44:15.488Z,96241.25
2023-04-15T05:46:43.473Z,96234.47
2023-04-15T05:49:10.960Z,96234.69
2023-04-15T05:51:38.167Z,96238.34
2023-04-15T05:54:05.792Z,96233.84
2023-04-15T05:56:33.179Z,96238.03
2023-04-15T05:59:00.677Z,96233.16
2023-04-15T06:01:28.235Z,96239.59
2023-04-15T06:03:55.856Z,96239.97
2023-04-15T06:06:23.647Z,96244.06
2023-04-15T06:08:51.038Z,96250.03
2023-04-15T06:11:18.344Z,96255.97
2023-04-15T06:13:45.669Z,96262.03
2023-04-15T06:16:12.908Z,96256.50
2023-04-15T06:18:40.451Z,96263.75
2023-04-15T06:21:08.099Z,96277.25
2023-04-15T06:23:37.297Z,96267.34
2023-04-15T06:26:04.659Z,96269.78
2023-04-15T06:28:31.896Z,96275.16
2023-04-15T06:30:59.219Z,96281.38
2023-04-15T06:33:26.477Z,96278.94
2023-04-15T06:35:54.091Z,96291.75
2023-04-15T06:38:21.530Z,96291.50
2023-04-15T06:40:48.924Z,96286.44
2023-04-15T06:43:16.132Z,96286.88
2023-04-15T06:45:43.316Z,96290.75
2023-04-15T06:48:10.498Z,96282.50
2023-04-15T06:50:37.878Z,96281.50
2023-04-15T06:53:05.244Z,96283.63
2023-04-15T06:55:33.992Z,96274.34
2023-04-15T06:58:01.296Z,96281.81
2023-04-15T07:00:28.829Z,96289.53
2023-04-15T07:02:56.810Z,96285.72
2023-04-15T07:05:25.451Z,96284.00
2023-04-15T07:07:53.116Z,96288.94
2023-04-15T07:10:20.573Z,96291.72
2023-04-15T07:12:50.724Z,96299.06
2023-04-15T07:15:18.065Z,96288.75
2023-04-15T07:17:45.423Z,96283.03
2023-04-15T07:20:13.322Z,96274.41
2023-04-15T07:22:40.946Z,96283.31
2023-04-15T07:25:09.174Z,96282.75
2023-04-15T07:27:36.795Z,96274.03
2023-04-15T07:30:04.543Z,96286.97
2023-04-15T07:32:31.950Z,96278.63
2023-04-15T07:34:59.340Z,96274.09
2023-04-15T07:37:26.608Z,96281.59
2023-04-15T07:39:53.740Z,96282.09
2023-04-15T07:42:21.538Z,96279.50
2023-04-15T07:44:48.869Z,96281.28
2023-04-15T07:47:16.277Z,96288.25
2023-04-15T07:49:44.426Z,96287.69
2023-04-15T07:52:11.804Z,96289.28
2023-04-15T07:54:39.953Z,96294.66
2023-04-15T07:57:07.972Z,96307.88
2023-04-15T07:59:35.426Z,96305.59
2023-04-15T08:02:03.529Z,96305.44
2023-04-15T08:04:31.390Z,96302.34
2023-04-15T08:06:59.102Z,96297.31
2023-04-15T08:09:27.298Z,96301.06
2023-04-15T08:11:54.589Z,96303.22
2023-04-15T08:14:22.302Z,96300.88
2023-04-15T08:16:49.507Z,96302.94
2023-04-15T08:19:17.240Z,96299.06
2023-04-15T08:21:44.545Z,96293.22
2023-04-15T08:24:12.419Z,96305.69
2023-04-15T08:26:39.607Z,96309.97
2023-04-15T08:29:06.871Z,96320.72
2023-04-15T08:31:34.275Z,96323.41
2023-04-15T08:34:01.596Z,96313.53
2023-04-15T08:36:28.842Z,96322.31
2023-04-15T08:38:56.264Z,96319.97
2023-04-15T08:41:26.216Z,96333.75
2023-04-15T08:44:01.427Z,96330.03
2023-04-15T08:46:29.541Z,96336.00
2023-04-15T08:48:58.596Z,96325.28
2023-04-15T08:51:27.293Z,96316.53
2023-04-15T08:53:55.288Z,96311.09
2023-04-15T08:56:29.690Z,96315.59
2023-04-15T08:58:57.949Z,96313.09
2023-04-15T09:01:25.762Z,96303.59
2023-04-15T09:03:57.245Z,96306.28
2023-04-15T09:06:27.208Z,96319.72
2023-04-15T09:08:54.806Z,96327.66
2023-04-15T09:11:22.978Z,96312.22
2023-04-15T09:13:50.657Z,96303.50
2023-04-15T09:16:18.783Z,96299.22
2023-04-15T09:18:46.336Z,96304.41
2023-04-15T09:21:16.883Z,96305.25
2023-04-15T09:24:02.085Z,96315.13
2023-04-15T09:26:35.095Z,96308.13
2023-04-15T09:29:10.992Z,96322.63
2023-04-15T09:31:38.578Z,96308.72
2023-04-15T09:34:07.052Z,96313.34
2023-04-15T09:36:57.508Z,96304.34
2023-04-15T09:39:24.884Z,96301.41
2023-04-15T09:42:08.739Z,96298.69
2023-04-15T09:44:36.517Z,96299.41
2023-04-15T09:47:03.881Z,96308.22
2023-04-15T09:49:31.210Z,96316.78
2023-04-15T09:52:06.185Z,96319.19
2023-04-15T09:54:37.806Z,96316.66
2023-04-15T09:57:10.484Z,96322.97
2023-04-15T09:59:38.056Z,96310.84
2023-04-15T10:02:07.837Z,96297.50
2023-04-15T10:04:39.422Z,96301.75
2023-04-15T10:07:12.285Z,96312.56
2023-04-15T10:09:40.553Z,96310.31
2023-04-15T10:12:08.943Z,96306.59
2023-04-15T10:14:38.812Z,96307.25
2023-04-15T10:17:08.430Z,96303.09
2023-04-15T10:19:38.224Z,96304.84
2023-04-15T10:22:07.102Z,96307.19
2023-04-15T10:24:34.618Z,96312.22
2023-04-15T10:27:04.677Z,96304.16
2023-04-15T10:29:32.292Z,96304.94
2023-04-15T10:32:01.931Z,96303.06
2023-04-15T10:34:30.706Z,96305.50
2023-04-15T10:37:03.697Z,96309.09
2023-04-15T10:39:36.468Z,96305.47
2023-04-15T10:42:08.956Z,96308.25
2023-04-15T10:44:42.562Z,96306.41
2023-04-15T10:47:21.713Z,96306.63
2023-04-15T10:49:58.601Z,96306.13
2023-04-15T10:52:28.799Z,96308.84
2023-04-15T10:55:11.500Z,96311.47
2023-04-15T10:57:41.421Z,96307.53
2023-04-15T11:00:14.283Z,96297.91
2023-04-15T11:02:47.429Z,96313.50
2023-04-15T11:05:17.453Z,96309.06
2023-04-15T11:07:55.784Z,96315.09
2023-04-15T11:10:26.308Z,96311.28
2023-04-15T11:12:58.507Z,96313.06
2023-04-15T11:15:47.205Z,96308.97
2023-04-15T11:18:17.111Z,96317.16
2023-04-15T11:20:48.999Z,96313.16
2023-04-15T11:23:19.258Z,96320.59
2023-04-15T11:25:46.868Z,96323.66
2023-04-15T11:28:14.508Z,96325.03
2023-04-15T11:30:43.902Z,96318.59
2023-04-15T11:33:12.735Z,96310.19
2023-04-15T11:35:42.391Z,96311.84
2023-04-15T11:38:12.693Z,96320.38
2023-04-15T11:40:42.133Z,96325.38
2023-04-15T11:43:11.368Z,96319.09
2023-04-15T11:45:58.839Z,96319.13
2023-04-15T11:48:32.199Z,96323.13
2023-04-15T11:51:05.442Z,96321.97
2023-04-15T11:53:48.685Z,96328.91
2023-04-15T11:56:25.609Z,96329.38
2023-04-15T11:58:57.223Z,96333.28
2023-04-15T12:01:39.916Z,96325.63
2023-04-15T12:04:14.761Z,96334.91
2023-04-15T12:06:42.188Z,96330.38
2023-04-15T12:09:14.704Z,96330.84
2023-04-15T12:11:55.804Z,96331.50
2023-04-15T12:14:32.848Z,96328.31
2023-04-15T12:17:05.628Z,96332.13
2023-04-15T12:19:45.617Z,96327.72
2023-04-15T12:22:17.071Z,96338.16
2023-04-15T12:24:48.076Z,96342.72
2023-04-15T12:27:17.111Z,96334.81
2023-04-15T12:29:45.079Z,96341.22
2023-04-15T12:32:14.067Z,96336.81
2023-04-15T12:34:51.272Z,96330.81
2023-04-15T12:37:18.865Z,96332.00
2023-04-15T12:39:50.190Z,96335.06
2023-04-15T12:42:18.629Z,96326.00
2023-04-15T12:44:46.372Z,96336.38
2023-04-15T12:47:14.108Z,96329.16
2023-04-15T12:49:41.554Z,96334.44
2023-04-15T12:52:08.942Z,96336.78
2023-04-15T12:54:36.536Z,96335.75
2023-04-15T12:57:06.810Z,96332.38
2023-04-15T12:59:35.488Z,96330.97
2023-04-15T13:02:03.312Z,96334.66
2023-04-15T13:04:31.633Z,96338.47
2023-04-15T13:06:59.058Z,96337.66
2023-04-15T13:09:26.455Z,96338.59
2023-04-15T13:11:54.731Z,96336.28
2023-04-15T13:14:22.141Z,96341.13
2023-04-15T13:16:49.306Z,96346.38
2023-04-15T13:19:16.545Z,96346.81
2023-04-15T13:21:43.954Z,96343.75
2023-04-15T13:24:11.279Z,96343.63
2023-04-15T13:26:38.581Z,96348.53
2023-04-15T13:29:06.015Z,96347.66
2023-04-15T13:31:33.382Z,96352.97
2023-04-15T13:34:00.935Z,96353.25
2023-04-15T13:36:28.367Z,96354.56
2023-04-15T13:38:55.826Z,96361.84
2023-04-15T13:41:23.093Z,96371.50
2023-04-15T13:43:50.517Z,96378.06
2023-04-15T13:46:17.862Z,96379.50
2023-04-15T13:48:45.341Z,96382.16
2023-04-15T13:51:12.648Z,96379.28
2023-04-15T13:53:40.017Z,96389.94
2023-04-15T13:56:08.719Z,96395.25
2023-04-15T13:58:37.995Z,96397.69
2023-04-15T14:01:06.989Z,96399.25
2023-04-15T14:03:38.350Z,96402.78
2023-04-15T14:06:06.740Z,96415.44
2023-04-15T14:08:34.111Z,96411.06
2023-04-15T14:11:01.693Z,96418.59
2023-04-15T14:13:29.231Z,96424.38
2023-04-15T14:15:57.647Z,96419.06
2023-04-15T14:18:25.357Z,96426.06
2023-04-15T14:20:52.742Z,96419.97
2023-04-15T14:23:20.117Z,96426.41
2023-04-15T14:25:48.355Z,96432.16
2023-04-15T14:28:16.195Z,96427.75
2023-04-15T14:30:43.764Z,96440.22
2023-04-15T14:33:11.284Z,96437.97
2023-04-15T14:35:39.231Z,96449.72
2023-04-15T14:38:10.500Z,96439.66
2023-04-15T14:40:38.004Z,96440.38
2023-04-15T14:43:05.299Z,96442.59
2023-04-15T14:45:32.606Z,96442.47
2023-04-15T14:48:00.343Z,96435.41
2023-04-15T14:50:27.715Z,96433.34
2023-04-15T14:52:54.942Z,96443.63
2023-04-15T14:55:22.425Z,96440.19
2023-04-15T14:57:49.756Z,96441.16
2023-04-15T15:00:17.217Z,96448.34
2023-04-15T15:02:44.686Z,96449.47
2023-04-15T15:05:12.524Z,96460.63
2023-04-15T15:07:43.294Z,96455.03
2023-04-15T15:10:10.790Z,96449.69
2023-04-15T15:12:38.116Z,96452.84
2023-04-15T15:15:15.741Z,96452.84
2023-04-15T15:17:53.886Z,96446.09
2023-04-15T15:20:21.805Z,96451.81
2023-04-15T15:22:49.213Z,96448.13
2023-04-15T15:25:16.563Z,96446.09
2023-04-15T15:27:43.900Z,96446.28
2023-04-15T15:30:12.014Z,96444.72
2023-04-15T15:32:41.817Z,96450.47
2023-04-15T15:35:10.512Z,96455.13
2023-04-15T15:37:38.453Z,96448.41
2023-04-15T15:40:06.866Z,96449.97
2023-04-15T15:42:34.914Z,96457.38
2023-04-15T15:45:04.811Z,96452.97
2023-04-15T15:47:32.179Z,96449.03
2023-04-15T15:50:02.342Z,96456.81
2023-04-15T15:52:31.025Z,96458.66
2023-04-15T15:54:58.345Z,96461.38
2023-04-15T15:57:25.748Z,96461.31
2023-04-15T16:00:04.726Z,96454.97
2023-04-15T16:03:04.436Z,96463.13
2023-04-15T16:05:25.415Z,96464.50
2023-04-15T16:07:52.797Z,96466.84
2023-04-15T16:10:20.074Z,96467.22
2023-04-15T16:12:47.319Z,96462.03
2023-04-15T16:15:14.861Z,96463.41
2023-04-15T16:17:42.245Z,96464.72
2023-04-15T16:20:10.413Z,96466.69
2023-04-15T16:22:38.057Z,96464.50
2023-04-15T16:25:05.917Z,96466.34
2023-04-15T16:27:36.431Z,96475.41
2023-04-15T16:30:07.274Z,96475.53
2023-04-15T16:32:34.731Z,96472.56
2023-04-15T16:35:03.418Z,96475.28
2023-04-15T16:37:32.974Z,96475.59
2023-04-15T16:40:01.059Z,96484.19
2023-04-15T16:42:28.969Z,96489.81
2023-04-15T16:44:56.454Z,96486.41
2023-04-15T16:47:23.784Z,96493.25
2023-04-15T16:49:51.328Z,96492.50
2023-04-15T16:52:18.762Z,96498.31
2023-04-15T16:54:46.120Z,96503.41
2023-04-15T16:57:13.419Z,96501.75
2023-04-15T16:59:40.804Z,96502.72
2023-04-15T17:02:13.473Z,96509.72
2023-04-15T17:04:41.874Z,96513.34
2023-04-15T17:07:10.666Z,96519.63
2023-04-15T17:09:39.750Z,96522.56
2023-04-15T17:12:07.510Z,96530.50
2023-04-15T17:14:35.339Z,96535.84
2023-04-15T17:17:02.695Z,96536.72
2023-04-15T17:19:29.842Z,96540.56
2023-04-15T17:21:58.236Z,96536.25
2023-04-15T17:24:25.621Z,96548.81
2023-04-15T17:26:54.336Z,96550.81
2023-04-15T17:29:21.545Z,96561.78
2023-04-15T17:31:48.811Z,96563.44
2023-04-15T17:34:16.243Z,96567.06
2023-04-15T17:36:43.703Z,96574.38
2023-04-15T17:39:11.704Z,96579.25
2023-04-15T17:41:38.971Z,96582.41
2023-04-15T17:44:06.591Z,96587.31
2023-04-15T17:46:34.206Z,96589.00
2023-04-15T17:49:02.633Z,96597.69
2023-04-15T17:51:30.004Z,96607.53
2023-04-15T17:54:07.536Z,96606.25
2023-04-15T17:56:35.403Z,96614.09
2023-04-15T17:59:03.613Z,96617.22
2023-04-15T18:01:30.907Z,96624.06
2023-04-15T18:03:58.421Z,96628.19
2023-04-15T18:06:27.296Z,96631.84
2023-04-15T18:08:54.616Z,96628.78
2023-04-15T18:11:22.038Z,96638.31
2023-04-15T18:13:49.477Z,96635.56
2023-04-15T18:16:16.692Z,96633.69
2023-04-15T18:18:44.091Z,96641.53
2023-04-15T18:21:13.530Z,96644.38
2023-04-15T18:23:41.269Z,96639.66
2023-04-15T18:26:08.581Z,96650.16
2023-04-15T18:28:37.657Z,96648.22
2023-04-15T18:31:05.622Z,96662.53
2023-04-15T18:33:33.049Z,96655.41
2023-04-15T18:36:02.544Z,96662.59
2023-04-15T18:38:29.901Z,96661.69
2023-04-15T18:40:57.141Z,96670.72
2023-04-15T18:43:24.336Z,96668.53
2023-04-15T18:45:53.121Z,96670.47
2023-04-15T18:48:20.882Z,96671.53
2023-04-15T18:50:49.072Z,96685.78
2023-04-15T18:53:16.516Z,96686.13
2023-04-15T18:55:43.759Z,96696.13
2023-04-15T18:58:11.116Z,96701.78
2023-04-15T19:00:41.848Z,96701.50
2023-04-15T19:03:10.092Z,96713.00
2023-04-15T19:05:37.675Z,96708.75
2023-04-15T19:08:05.143Z,96716.34
2023-04-15T19:10:34.040Z,96722.63
2023-04-15T19:13:01.342Z,96724.63
2023-04-15T19:15:29.411Z,96737.50
2023-04-15T19:17:56.886Z,96744.59
2023-04-15T19:20:24.224Z,96742.59
2023-04-15T19:22:51.819Z,96746.59
2023-04-15T19:25:19.262Z,96744.06
2023-04-15T19:27:46.759Z,96745.59
2023-04-15T19:30:14.198Z,96744.38
2023-04-15T19:32:41.421Z,96751.97
2023-04-15T19:35:11.371Z,96756.75
2023-04-15T19:37:39.055Z,96751.41
2023-04-15T19:40:07.383Z,96755.03
2023-04-15T19:42:34.999Z,96755.50
2023-04-15T19:45:02.316Z,96753.91
2023-04-15T19:47:29.519Z,96761.94
2023-04-15T19:49:56.780Z,96773.81
2023-04-15T19:52:24.037Z,96766.03
2023-04-15T19:54:51.344Z,96775.81
2023-04-15T19:57:18.571Z,96773.94
2023-04-15T19:59:45.953Z,96774.75
2023-04-15T20:02:13.403Z,96776.59
2023-04-15T20:04:40.868Z,96780.97
2023-04-15T20:07:08.380Z,96782.03
2023-04-15T20:09:35.640Z,96787.38
2023-04-15T20:12:45.570Z,96784.91
2023-04-15T20:14:50.275Z,96791.44
2023-04-15T20:17:17.461Z,96791.13
2023-04-15T20:19:44.693Z,96789.56
2023-04-15T20:22:11.940Z,96790.84
2023-04-15T20:24:39.336Z,96790.13
2023-04-15T20:27:06.549Z,96791.06
2023-04-15T20:29:33.952Z,96789.91
2023-04-15T20:32:01.268Z,96794.41
2023-04-15T20:34:28.516Z,96791.47
2023-04-15T20:36:55.872Z,96796.16
2023-04-15T20:39:23.347Z,96802.88
2023-04-15T20:41:50.791Z,96802.28
2023-04-15T20:44:17.995Z,96812.94
2023-04-15T20:46:45.263Z,96816.31
2023-04-15T20:49:12.557Z,96824.19
2023-04-15T20:51:40.471Z,96826.06
2023-04-15T20:54:08.021Z,96829.31
2023-04-15T20:56:35.477Z,96819.44
2023-04-15T20:59:03.019Z,96829.50
2023-04-15T21:01:30.623Z,96822.25
2023-04-15T21:03:58.968Z,96825.38
2023-04-15T21:06:27.147Z,96832.41
2023-04-15T21:08:54.423Z,96835.59
2023-04-15T21:11:40.626Z,96838.97
2023-04-15T21:14:09.249Z,96845.06
2023-04-15T21:16:36.531Z,96849.00
2023-04-15T21:19:03.975Z,96846.41
2023-04-15T21:21:32.030Z,96852.38
2023-04-15T21:23:59.870Z,96855.88
2023-04-15T21:26:27.065Z,96859.34
2023-04-15T21:28:54.362Z,96861.78
2023-04-15T21:31:22.169Z,96864.88
2023-04-15T21:33:49.625Z,96864.72
2023-04-15T21:36:16.878Z,96865.56
2023-04-15T21:38:44.255Z,96864.53
2023-04-15T21:41:11.418Z,96866.94
2023-04-15T21:43:38.994Z,96871.31
2023-04-15T21:46:22.563Z,96863.63
2023-04-15T21:48:53.663Z,96875.56
2023-04-15T21:51:21.064Z,96877.78
2023-04-15T21:53:48.531Z,96879.66
2023-04-15T21:56:15.825Z,96875.53
2023-04-15T21:58:43.139Z,96881.34
2023-04-15T22:01:10.527Z,96878.84
2023-04-15T22:03:37.902Z,96887.59
2023-04-15T22:06:05.574Z,96886.47
2023-04-15T22:08:38.699Z,96883.03
2023-04-15T22:11:28.451Z,96887.59
2023-04-15T22:13:57.429Z,96893.44
2023-04-15T22:16:28.720Z,96890.25
2023-04-15T22:18:56.491Z,96887.06
2023-04-15T22:21:24.086Z,96892.63
2023-04-15T22:23:52.311Z,96894.75
2023-04-15T22:26:19.588Z,96901.41
2023-04-15T22:28:46.925Z,96903.69
2023-04-15T22:31:15.038Z,96906.25
2023-04-15T22:33:42.480Z,96910.03
2023-04-15T22:36:09.910Z,96916.34
2023-04-15T22:38:37.361Z,96918.25
2023-04-15T22:41:04.912Z,96923.97
2023-04-15T22:43:32.292Z,96929.06
2023-04-15T22:46:01.326Z,96935.41
2023-04-15T22:48:28.630Z,96923.84
2023-04-15T22:50:56.021Z,96938.38
2023-04-15T22:53:23.360Z,96939.44
2023-04-15T22:55:51.186Z,96937.09
2023-04-15T22:58:18.579Z,96937.38
2023-04-15T23:00:45.938Z,96939.75
2023-04-15T23:03:13.336Z,96940.81
2023-04-15T23:05:41.298Z,96945.56
2023-04-15T23:08:08.708Z,96946.88
2023-04-15T23:10:35.888Z,96950.00
2023-04-15T23:13:03.147Z,96952.66
2023-04-15T23:15:30.401Z,96959.25
2023-04-15T23:17:57.792Z,96959.25
2023-04-15T23:20:25.062Z,96969.75
2023-04-15T23:22:52.292Z,96965.25
2023-04-15T23:25:22.288Z,96951.25
2023-04-15T23:27:49.474Z,96957.00
2023-04-15T23:30:16.948Z,96954.59
2023-04-15T23:32:44.207Z,96955.91
2023-04-15T23:35:11.689Z,96961.63
2023-04-15T23:37:38.972Z,96957.13
2023-04-15T23:40:07.339Z,96958.16
2023-04-15T23:42:34.590Z,96951.59
2023-04-15T23:45:01.994Z,96959.53
2023-04-15T23:47:29.191Z,96955.25
2023-04-15T23:49:56.535Z,96967.63
2023-04-15T23:52:24.072Z,96965.81
2023-04-15T23:54:51.581Z,96966.41
2023-04-15T23:57:18.925Z,96971.63
2023-04-15T23:59:46.715Z,96968.16
